sensor_id;sensor_type;location;lat;lon;timestamp;pressure;altitude;pressure_sealevel;temperature;humidity
47742;BME280;33504;52.066;6.096;2023-02-20T00:00:47;102453.34;;;6.81;51.70
47742;BME280;33504;52.066;6.096;2023-02-20T00:03:15;102451.27;;;7.09;52.06
47742;BME280;33504;52.066;6.096;2023-02-20T00:05:42;102455.09;;;6.77;52.35
47742;BME280;33504;52.066;6.096;2023-02-20T00:08:09;102445.95;;;7.17;51.73
47742;BME280;33504;52.066;6.096;2023-02-20T00:10:37;102455.20;;;6.65;52.56
47742;BME280;33504;52.066;6.096;2023-02-20T00:13:05;102448.57;;;6.91;52.30
47742;BME280;33504;52.066;6.096;2023-02-20T00:15:32;102440.06;;;7.00;51.98
47742;BME280;33504;52.066;6.096;2023-02-20T00:17:59;102447.58;;;7.61;51.39
47742;BME280;33504;52.066;6.096;2023-02-20T00:20:27;102435.02;;;7.12;51.68
47742;BME280;33504;52.066;6.096;2023-02-20T00:22:55;102425.44;;;7.42;51.50
47742;BME280;33504;52.066;6.096;2023-02-20T00:25:22;102415.79;;;6.87;51.89
47742;BME280;33504;52.066;6.096;2023-02-20T00:27:49;102418.60;;;7.44;51.46
47742;BME280;33504;52.066;6.096;2023-02-20T00:30:18;102411.32;;;7.53;51.35
47742;BME280;33504;52.066;6.096;2023-02-20T00:32:48;102411.29;;;7.06;52.13
47742;BME280;33504;52.066;6.096;2023-02-20T00:35:17;102396.28;;;7.26;52.03
47742;BME280;33504;52.066;6.096;2023-02-20T00:37:45;102389.29;;;7.32;51.75
47742;BME280;33504;52.066;6.096;2023-02-20T00:40:14;102387.71;;;7.36;51.46
47742;BME280;33504;52.066;6.096;2023-02-20T00:42:42;102387.37;;;7.32;51.39
47742;BME280;33504;52.066;6.096;2023-02-20T00:45:10;102393.17;;;7.73;51.32
47742;BME280;33504;52.066;6.096;2023-02-20T00:47:38;102388.82;;;7.38;51.46
47742;BME280;33504;52.066;6.096;2023-02-20T00:50:07;102378.84;;;7.39;51.71
47742;BME280;33504;52.066;6.096;2023-02-20T00:52:34;102372.75;;;7.06;52.16
47742;BME280;33504;52.066;6.096;2023-02-20T00:55:01;102360.30;;;7.15;51.86
47742;BME280;33504;52.066;6.096;2023-02-20T00:57:28;102372.10;;;7.12;52.40
47742;BME280;33504;52.066;6.096;2023-02-20T00:59:56;102357.09;;;7.15;51.78
47742;BME280;33504;52.066;6.096;2023-02-20T01:02:23;102365.40;;;7.16;51.82
47742;BME280;33504;52.066;6.096;2023-02-20T01:04:50;102371.78;;;6.85;52.30
47742;BME280;33504;52.066;6.096;2023-02-20T01:07:18;102358.67;;;7.24;52.00
47742;BME280;33504;52.066;6.096;2023-02-20T01:09:45;102348.88;;;7.45;52.12
47742;BME280;33504;52.066;6.096;2023-02-20T01:12:12;102350.26;;;7.17;52.55
47742;BME280;33504;52.066;6.096;2023-02-20T01:14:39;102353.11;;;6.87;53.07
47742;BME280;33504;52.066;6.096;2023-02-20T01:17:06;102345.05;;;6.61;53.13
47742;BME280;33504;52.066;6.096;2023-02-20T01:19:33;102334.38;;;6.65;53.29
47742;BME280;33504;52.066;6.096;2023-02-20T01:22:00;102323.79;;;6.83;53.28
47742;BME280;33504;52.066;6.096;2023-02-20T01:24:28;102325.24;;;6.71;53.14
47742;BME280;33504;52.066;6.096;2023-02-20T01:26:55;102321.19;;;6.74;53.05
47742;BME280;33504;52.066;6.096;2023-02-20T01:29:22;102318.17;;;6.71;53.12
47742;BME280;33504;52.066;6.096;2023-02-20T01:31:50;102307.71;;;6.84;53.17
47742;BME280;33504;52.066;6.096;2023-02-20T01:34:19;102297.49;;;6.89;52.79
47742;BME280;33504;52.066;6.096;2023-02-20T01:36:47;102299.81;;;6.89;53.16
47742;BME280;33504;52.066;6.096;2023-02-20T01:39:16;102298.42;;;6.52;52.86
47742;BME280;33504;52.066;6.096;2023-02-20T01:41:46;102301.46;;;7.03;52.48
47742;BME280;33504;52.066;6.096;2023-02-20T01:44:18;102289.45;;;7.06;52.72
47742;BME280;33504;52.066;6.096;2023-02-20T01:46:49;102286.93;;;6.56;53.54
47742;BME280;33504;52.066;6.096;2023-02-20T01:49:23;102290.88;;;6.63;53.10
47742;BME280;33504;52.066;6.096;2023-02-20T01:51:56;102285.57;;;6.87;52.66
47742;BME280;33504;52.066;6.096;2023-02-20T01:54:25;102285.60;;;6.73;52.78
47742;BME280;33504;52.066;6.096;2023-02-20T01:56:56;102279.77;;;7.16;52.66
47742;BME280;33504;52.066;6.096;2023-02-20T01:59:27;102284.48;;;6.65;53.02
47742;BME280;33504;52.066;6.096;2023-02-20T02:01:55;102279.19;;;6.79;53.36
47742;BME280;33504;52.066;6.096;2023-02-20T02:04:23;102285.41;;;6.83;53.17
47742;BME280;33504;52.066;6.096;2023-02-20T02:06:52;102274.33;;;7.02;52.75
47742;BME280;33504;52.066;6.096;2023-02-20T02:09:27;102273.20;;;6.75;52.87
47742;BME280;33504;52.066;6.096;2023-02-20T02:11:59;102272.17;;;7.11;52.69
47742;BME280;33504;52.066;6.096;2023-02-20T02:14:26;102267.71;;;7.03;52.91
47742;BME280;33504;52.066;6.096;2023-02-20T02:17:06;102257.16;;;7.14;52.32
47742;BME280;33504;52.066;6.096;2023-02-20T02:19:56;102250.93;;;7.24;52.12
47742;BME280;33504;52.066;6.096;2023-02-20T02:22:48;102243.71;;;6.75;53.14
47742;BME280;33504;52.066;6.096;2023-02-20T02:25:27;102236.73;;;6.72;53.22
47742;BME280;33504;52.066;6.096;2023-02-20T02:28:13;102230.10;;;6.82;53.48
47742;BME280;33504;52.066;6.096;2023-02-20T02:31:14;102226.03;;;6.80;53.41
47742;BME280;33504;52.066;6.096;2023-02-20T02:34:07;102221.74;;;6.30;54.68
47742;BME280;33504;52.066;6.096;2023-02-20T02:36:49;102229.29;;;6.80;53.25
47742;BME280;33504;52.066;6.096;2023-02-20T02:39:24;102242.78;;;6.99;53.25
47742;BME280;33504;52.066;6.096;2023-02-20T02:42:01;102238.31;;;6.59;54.02
47742;BME280;33504;52.066;6.096;2023-02-20T02:44:36;102235.02;;;6.77;53.74
47742;BME280;33504;52.066;6.096;2023-02-20T02:47:11;102225.37;;;6.76;53.45
47742;BME280;33504;52.066;6.096;2023-02-20T02:49:44;102226.00;;;6.65;53.75
47742;BME280;33504;52.066;6.096;2023-02-20T02:52:14;102224.43;;;6.78;53.96
47742;BME280;33504;52.066;6.096;2023-02-20T02:54:41;102224.16;;;6.96;53.79
47742;BME280;33504;52.066;6.096;2023-02-20T02:57:20;102215.79;;;6.36;54.50
47742;BME280;33504;52.066;6.096;2023-02-20T02:59:52;102213.32;;;6.60;54.50
47742;BME280;33504;52.066;6.096;2023-02-20T03:02:21;102211.26;;;6.21;54.96
47742;BME280;33504;52.066;6.096;2023-02-20T03:04:51;102213.10;;;6.57;54.46
47742;BME280;33504;52.066;6.096;2023-02-20T03:07:20;102212.38;;;6.44;54.67
47742;BME280;33504;52.066;6.096;2023-02-20T03:09:51;102202.82;;;6.88;54.25
47742;BME280;33504;52.066;6.096;2023-02-20T03:12:21;102206.44;;;6.99;54.17
47742;BME280;33504;52.066;6.096;2023-02-20T03:14:55;102202.97;;;7.03;53.67
47742;BME280;33504;52.066;6.096;2023-02-20T03:17:29;102206.71;;;6.71;54.28
47742;BME280;33504;52.066;6.096;2023-02-20T03:19:59;102204.04;;;7.08;54.15
47742;BME280;33504;52.066;6.096;2023-02-20T03:22:31;102195.90;;;6.73;54.57
47742;BME280;33504;52.066;6.096;2023-02-20T03:25:02;102200.30;;;6.57;54.51
47742;BME280;33504;52.066;6.096;2023-02-20T03:27:34;102195.98;;;7.23;54.40
47742;BME280;33504;52.066;6.096;2023-02-20T03:30:08;102186.66;;;6.98;53.93
47742;BME280;33504;52.066;6.096;2023-02-20T03:32:38;102188.80;;;7.64;53.17
47742;BME280;33504;52.066;6.096;2023-02-20T03:35:08;102190.38;;;7.23;53.64
47742;BME280;33504;52.066;6.096;2023-02-20T03:37:37;102184.88;;;7.08;53.74
47742;BME280;33504;52.066;6.096;2023-02-20T03:40:09;102187.37;;;6.95;54.59
47742;BME280;33504;52.066;6.096;2023-02-20T03:42:41;102190.88;;;7.28;53.76
47742;BME280;33504;52.066;6.096;2023-02-20T03:45:11;102192.79;;;7.51;53.79
47742;BME280;33504;52.066;6.096;2023-02-20T03:47:43;102190.23;;;7.50;53.75
47742;BME280;33504;52.066;6.096;2023-02-20T03:50:12;102191.79;;;7.35;53.79
47742;BME280;33504;52.066;6.096;2023-02-20T03:52:40;102196.87;;;7.59;53.84
47742;BME280;33504;52.066;6.096;2023-02-20T03:55:08;102189.15;;;7.67;53.38
47742;BME280;33504;52.066;6.096;2023-02-20T03:57:39;102187.29;;;7.50;53.56
47742;BME280;33504;52.066;6.096;2023-02-20T04:00:11;102182.07;;;7.62;53.47
47742;BME280;33504;52.066;6.096;2023-02-20T04:02:44;102181.01;;;7.42;53.75
47742;BME280;33504;52.066;6.096;2023-02-20T04:05:15;102182.44;;;7.62;53.96
47742;BME280;33504;52.066;6.096;2023-02-20T04:07:48;102180.81;;;7.45;53.94
47742;BME280;33504;52.066;6.096;2023-02-20T04:10:22;102182.94;;;7.19;54.49
47742;BME280;33504;52.066;6.096;2023-02-20T04:12:51;102180.55;;;7.47;54.34
47742;BME280;33504;52.066;6.096;2023-02-20T04:15:22;102182.81;;;7.48;54.01
47742;BME280;33504;52.066;6.096;2023-02-20T04:17:51;102179.42;;;7.39;54.33
47742;BME280;33504;52.066;6.096;2023-02-20T04:20:20;102176.12;;;7.49;54.18
47742;BME280;33504;52.066;6.096;2023-02-20T04:22:48;102178.11;;;7.71;53.70
47742;BME280;33504;52.066;6.096;2023-02-20T04:25:22;102174.93;;;7.51;54.28
47742;BME280;33504;52.066;6.096;2023-02-20T04:27:53;102177.96;;;7.49;54.61
47742;BME280;33504;52.066;6.096;2023-02-20T04:30:21;102169.37;;;7.66;54.01
47742;BME280;33504;52.066;6.096;2023-02-20T04:32:48;102178.96;;;7.53;54.88
47742;BME280;33504;52.066;6.096;2023-02-20T04:35:16;102175.12;;;7.12;55.23
47742;BME280;33504;52.066;6.096;2023-02-20T04:37:44;102172.09;;;7.31;54.92
47742;BME280;33504;52.066;6.096;2023-02-20T04:40:13;102179.12;;;7.24;55.74
47742;BME280;33504;52.066;6.096;2023-02-20T04:42:40;102170.47;;;7.43;55.33
47742;BME280;33504;52.066;6.096;2023-02-20T04:45:08;102166.13;;;7.30;55.23
47742;BME280;33504;52.066;6.096;2023-02-20T04:47:35;102157.87;;;7.59;54.82
47742;BME280;33504;52.066;6.096;2023-02-20T04:50:02;102149.46;;;7.98;54.13
47742;BME280;33504;52.066;6.096;2023-02-20T04:52:30;102153.00;;;8.18;53.69
47742;BME280;33504;52.066;6.096;2023-02-20T04:54:56;102154.87;;;7.58;54.52
47742;BME280;33504;52.066;6.096;2023-02-20T04:57:23;102161.57;;;8.24;53.95
47742;BME280;33504;52.066;6.096;2023-02-20T04:59:51;102147.84;;;8.26;53.46
47742;BME280;33504;52.066;6.096;2023-02-20T05:02:18;102150.98;;;8.26;53.43
47742;BME280;33504;52.066;6.096;2023-02-20T05:04:45;102146.78;;;8.05;53.72
47742;BME280;33504;52.066;6.096;2023-02-20T05:07:12;102150.05;;;7.95;53.92
47742;BME280;33504;52.066;6.096;2023-02-20T05:09:43;102152.24;;;7.58;53.61
47742;BME280;33504;52.066;6.096;2023-02-20T05:12:10;102153.38;;;7.95;53.25
47742;BME280;33504;52.066;6.096;2023-02-20T05:14:38;102141.77;;;7.75;54.19
47742;BME280;33504;52.066;6.096;2023-02-20T05:17:05;102151.61;;;7.51;53.87
47742;BME280;33504;52.066;6.096;2023-02-20T05:19:32;102144.70;;;8.10;53.56
47742;BME280;33504;52.066;6.096;2023-02-20T05:21:59;102153.36;;;8.10;53.68
47742;BME280;33504;52.066;6.096;2023-02-20T05:24:26;102156.94;;;8.18;53.49
47742;BME280;33504;52.066;6.096;2023-02-20T05:26:54;102161.90;;;7.60;53.72
47742;BME280;33504;52.066;6.096;2023-02-20T05:29:21;102160.31;;;8.01;53.31
47742;BME280;33504;52.066;6.096;2023-02-20T05:31:49;102154.45;;;7.81;53.35
47742;BME280;33504;52.066;6.096;2023-02-20T05:34:16;102159.63;;;8.00;53.93
47742;BME280;33504;52.066;6.096;2023-02-20T05:36:43;102154.93;;;7.95;54.19
47742;BME280;33504;52.066;6.096;2023-02-20T05:39:10;102146.22;;;7.92;54.29
47742;BME280;33504;52.066;6.096;2023-02-20T05:41:36;102146.59;;;8.06;53.71
47742;BME280;33504;52.066;6.096;2023-02-20T05:44:04;102143.54;;;8.40;53.49
47742;BME280;33504;52.066;6.096;2023-02-20T05:46:31;102141.91;;;7.98;53.82
47742;BME280;33504;52.066;6.096;2023-02-20T05:48:59;102136.51;;;7.77;53.75
47742;BME280;33504;52.066;6.096;2023-02-20T05:51:28;102139.07;;;8.27;53.52
47742;BME280;33504;52.066;6.096;2023-02-20T05:53:56;102133.82;;;8.17;53.82
47742;BME280;33504;52.066;6.096;2023-02-20T05:56:23;102131.42;;;8.14;53.45
47742;BME280;33504;52.066;6.096;2023-02-20T05:58:50;102134.67;;;7.40;54.23
47742;BME280;33504;52.066;6.096;2023-02-20T06:01:20;102128.98;;;7.79;53.98
47742;BME280;33504;52.066;6.096;2023-02-20T06:03:47;102122.16;;;8.06;54.01
47742;BME280;33504;52.066;6.096;2023-02-20T06:06:15;102130.55;;;7.99;53.73
47742;BME280;33504;52.066;6.096;2023-02-20T06:08:42;102130.71;;;7.79;53.83
47742;BME280;33504;52.066;6.096;2023-02-20T06:11:11;102129.37;;;7.83;53.44
47742;BME280;33504;52.066;6.096;2023-02-20T06:13:39;102128.26;;;7.91;53.85
47742;BME280;33504;52.066;6.096;2023-02-20T06:16:07;102136.87;;;7.82;53.55
47742;BME280;33504;52.066;6.096;2023-02-20T06:18:37;102131.74;;;8.57;53.16
47742;BME280;33504;52.066;6.096;2023-02-20T06:21:06;102127.65;;;8.27;53.75
47742;BME280;33504;52.066;6.096;2023-02-20T06:23:34;102136.75;;;8.00;53.26
47742;BME280;33504;52.066;6.096;2023-02-20T06:26:02;102135.79;;;7.70;53.52
47742;BME280;33504;52.066;6.096;2023-02-20T06:28:29;102134.82;;;8.52;53.28
47742;BME280;33504;52.066;6.096;2023-02-20T06:30:56;102138.65;;;8.26;52.94
47742;BME280;33504;52.066;6.096;2023-02-20T06:33:23;102138.70;;;8.51;53.38
47742;BME280;33504;52.066;6.096;2023-02-20T06:35:50;102136.93;;;8.34;53.04
47742;BME280;33504;52.066;6.096;2023-02-20T06:38:18;102130.88;;;9.09;52.57
47742;BME280;33504;52.066;6.096;2023-02-20T06:40:45;102139.42;;;8.51;53.62
47742;BME280;33504;52.066;6.096;2023-02-20T06:43:13;102129.79;;;8.03;53.83
47742;BME280;33504;52.066;6.096;2023-02-20T06:45:40;102128.46;;;7.80;54.09
47742;BME280;33504;52.066;6.096;2023-02-20T06:48:07;102135.57;;;8.16;53.62
47742;BME280;33504;52.066;6.096;2023-02-20T06:50:34;102128.63;;;8.56;53.36
47742;BME280;33504;52.066;6.096;2023-02-20T06:53:01;102125.46;;;8.43;53.23
47742;BME280;33504;52.066;6.096;2023-02-20T06:55:29;102122.90;;;8.92;52.52
47742;BME280;33504;52.066;6.096;2023-02-20T06:57:56;102117.75;;;8.64;52.96
47742;BME280;33504;52.066;6.096;2023-02-20T07:00:24;102124.85;;;8.36;53.77
47742;BME280;33504;52.066;6.096;2023-02-20T07:02:51;102106.01;;;7.85;54.27
47742;BME280;33504;52.066;6.096;2023-02-20T07:05:18;102111.80;;;8.19;54.19
47742;BME280;33504;52.066;6.096;2023-02-20T07:07:46;102107.75;;;8.76;53.59
47742;BME280;33504;52.066;6.096;2023-02-20T07:10:13;102117.41;;;8.37;53.46
47742;BME280;33504;52.066;6.096;2023-02-20T07:12:40;102130.16;;;8.57;53.47
47742;BME280;33504;52.066;6.096;2023-02-20T07:15:09;102123.71;;;8.46;53.57
47742;BME280;33504;52.066;6.096;2023-02-20T07:17:36;102115.48;;;8.57;53.29
47742;BME280;33504;52.066;6.096;2023-02-20T07:20:04;102118.90;;;8.38;53.56
47742;BME280;33504;52.066;6.096;2023-02-20T07:22:32;102127.58;;;8.42;53.43
47742;BME280;33504;52.066;6.096;2023-02-20T07:24:58;102128.43;;;8.42;53.55
47742;BME280;33504;52.066;6.096;2023-02-20T07:27:26;102130.62;;;8.53;53.29
47742;BME280;33504;52.066;6.096;2023-02-20T07:29:53;102127.44;;;8.48;53.53
47742;BME280;33504;52.066;6.096;2023-02-20T07:32:20;102129.49;;;8.38;53.75
47742;BME280;33504;52.066;6.096;2023-02-20T07:34:47;102137.00;;;8.81;53.22
47742;BME280;33504;52.066;6.096;2023-02-20T07:37:15;102138.09;;;8.34;53.48
47742;BME280;33504;52.066;6.096;2023-02-20T07:39:42;102147.73;;;9.07;53.06
47742;BME280;33504;52.066;6.096;2023-02-20T07:42:09;102136.30;;;8.93;52.72
47742;BME280;33504;52.066;6.096;2023-02-20T07:44:36;102148.01;;;8.45;53.48
47742;BME280;33504;52.066;6.096;2023-02-20T07:47:04;102133.28;;;8.44;53.61
47742;BME280;33504;52.066;6.096;2023-02-20T07:49:31;102144.59;;;8.55;53.69
47742;BME280;33504;52.066;6.096;2023-02-20T07:51:58;102140.29;;;8.53;53.50
47742;BME280;33504;52.066;6.096;2023-02-20T07:54:26;102149.97;;;8.59;53.58
47742;BME280;33504;52.066;6.096;2023-02-20T07:56:53;102146.85;;;8.38;54.01
47742;BME280;33504;52.066;6.096;2023-02-20T07:59:21;102141.02;;;8.22;53.88
47742;BME280;33504;52.066;6.096;2023-02-20T08:01:50;102137.92;;;8.51;53.94
47742;BME280;33504;52.066;6.096;2023-02-20T08:04:18;102138.81;;;8.66;53.09
47742;BME280;33504;52.066;6.096;2023-02-20T08:06:45;102136.66;;;8.64;53.66
47742;BME280;33504;52.066;6.096;2023-02-20T08:09:12;102131.71;;;8.97;53.09
47742;BME280;33504;52.066;6.096;2023-02-20T08:11:39;102125.13;;;8.73;53.43
47742;BME280;33504;52.066;6.096;2023-02-20T08:14:06;102139.53;;;8.28;54.47
47742;BME280;33504;52.066;6.096;2023-02-20T08:16:33;102142.60;;;8.24;54.50
47742;BME280;33504;52.066;6.096;2023-02-20T08:19:01;102146.28;;;8.44;54.30
47742;BME280;33504;52.066;6.096;2023-02-20T08:21:28;102145.08;;;8.72;53.74
47742;BME280;33504;52.066;6.096;2023-02-20T08:23:55;102158.57;;;8.72;53.75
47742;BME280;33504;52.066;6.096;2023-02-20T08:26:22;102133.01;;;8.64;53.81
47742;BME280;33504;52.066;6.096;2023-02-20T08:28:51;102129.92;;;8.54;53.97
47742;BME280;33504;52.066;6.096;2023-02-20T08:31:19;102130.72;;;8.63;53.95
47742;BME280;33504;52.066;6.096;2023-02-20T08:33:46;102123.18;;;9.07;53.29
47742;BME280;33504;52.066;6.096;2023-02-20T08:36:13;102116.18;;;8.46;53.96
47742;BME280;33504;52.066;6.096;2023-02-20T08:38:41;102120.88;;;8.81;53.26
47742;BME280;33504;52.066;6.096;2023-02-20T08:41:10;102122.32;;;9.24;53.04
47742;BME280;33504;52.066;6.096;2023-02-20T08:43:39;102113.27;;;8.87;53.81
47742;BME280;33504;52.066;6.096;2023-02-20T08:46:06;102112.44;;;9.10;53.60
47742;BME280;33504;52.066;6.096;2023-02-20T08:48:33;102118.03;;;9.21;53.55
47742;BME280;33504;52.066;6.096;2023-02-20T08:51:01;102113.38;;;8.98;53.61
47742;BME280;33504;52.066;6.096;2023-02-20T08:53:28;102121.13;;;8.85;54.15
47742;BME280;33504;52.066;6.096;2023-02-20T08:55:56;102115.40;;;9.60;52.99
47742;BME280;33504;52.066;6.096;2023-02-20T08:58:24;102108.76;;;9.34;53.02
47742;BME280;33504;52.066;6.096;2023-02-20T09:00:52;102122.04;;;9.37;53.66
47742;BME280;33504;52.066;6.096;2023-02-20T09:03:19;102116.06;;;9.42;52.87
47742;BME280;33504;52.066;6.096;2023-02-20T09:05:46;102107.38;;;9.10;53.32
47742;BME280;33504;52.066;6.096;2023-02-20T09:08:13;102112.66;;;8.90;53.87
47742;BME280;33504;52.066;6.096;2023-02-20T09:10:40;102112.42;;;9.02;53.09
47742;BME280;33504;52.066;6.096;2023-02-20T09:13:07;102108.47;;;9.39;53.03
47742;BME280;33504;52.066;6.096;2023-02-20T09:15:34;102104.88;;;9.70;52.36
47742;BME280;33504;52.066;6.096;2023-02-20T09:18:02;102110.19;;;9.54;53.05
47742;BME280;33504;52.066;6.096;2023-02-20T09:20:29;102111.67;;;9.83;52.46
47742;BME280;33504;52.066;6.096;2023-02-20T09:22:58;102112.36;;;9.49;52.48
47742;BME280;33504;52.066;6.096;2023-02-20T09:25:25;102114.17;;;10.04;51.68
47742;BME280;33504;52.066;6.096;2023-02-20T09:27:53;102112.67;;;9.99;51.64
47742;BME280;33504;52.066;6.096;2023-02-20T09:30:20;102101.30;;;9.39;52.31
47742;BME280;33504;52.066;6.096;2023-02-20T09:32:48;102109.91;;;9.41;52.69
47742;BME280;33504;52.066;6.096;2023-02-20T09:35:17;102112.59;;;9.60;52.58
47742;BME280;33504;52.066;6.096;2023-02-20T09:37:44;102101.12;;;9.52;52.37
47742;BME280;33504;52.066;6.096;2023-02-20T09:40:13;102105.89;;;9.16;53.02
47742;BME280;33504;52.066;6.096;2023-02-20T09:42:49;102114.09;;;9.74;52.53
47742;BME280;33504;52.066;6.096;2023-02-20T09:45:23;102102.67;;;9.58;52.37
47742;BME280;33504;52.066;6.096;2023-02-20T09:48:03;102102.84;;;9.97;52.10
47742;BME280;33504;52.066;6.096;2023-02-20T09:50:38;102105.31;;;10.15;51.77
47742;BME280;33504;52.066;6.096;2023-02-20T09:53:17;102104.74;;;9.76;52.55
47742;BME280;33504;52.066;6.096;2023-02-20T09:55:47;102105.63;;;9.34;53.00
47742;BME280;33504;52.066;6.096;2023-02-20T09:58:20;102101.82;;;9.93;52.05
47742;BME280;33504;52.066;6.096;2023-02-20T10:00:49;102103.98;;;9.86;52.57
47742;BME280;33504;52.066;6.096;2023-02-20T10:03:21;102114.22;;;10.02;52.38
47742;BME280;33504;52.066;6.096;2023-02-20T10:05:50;102108.06;;;9.83;52.33
47742;BME280;33504;52.066;6.096;2023-02-20T10:08:20;102113.62;;;9.69;52.22
47742;BME280;33504;52.066;6.096;2023-02-20T10:10:50;102125.11;;;10.26;51.71
47742;BME280;33504;52.066;6.096;2023-02-20T10:13:34;102123.41;;;10.30;51.64
47742;BME280;33504;52.066;6.096;2023-02-20T10:16:07;102129.26;;;10.08;51.77
47742;BME280;33504;52.066;6.096;2023-02-20T10:18:44;102129.43;;;9.44;53.20
47742;BME280;33504;52.066;6.096;2023-02-20T10:21:30;102121.76;;;10.08;52.31
47742;BME280;33504;52.066;6.096;2023-02-20T10:24:08;102121.71;;;9.70;52.90
47742;BME280;33504;52.066;6.096;2023-02-20T10:26:46;102123.49;;;9.58;52.75
47742;BME280;33504;52.066;6.096;2023-02-20T10:29:19;102133.00;;;9.99;52.30
47742;BME280;33504;52.066;6.096;2023-02-20T10:31:51;102128.72;;;9.76;52.61
47742;BME280;33504;52.066;6.096;2023-02-20T10:34:24;102138.77;;;10.13;51.84
47742;BME280;33504;52.066;6.096;2023-02-20T10:37:01;102130.00;;;10.33;51.50
47742;BME280;33504;52.066;6.096;2023-02-20T10:39:29;102140.38;;;9.94;52.26
47742;BME280;33504;52.066;6.096;2023-02-20T10:42:02;102146.63;;;10.02;52.32
47742;BME280;33504;52.066;6.096;2023-02-20T10:44:35;102134.75;;;9.85;52.34
47742;BME280;33504;52.066;6.096;2023-02-20T10:47:10;102149.01;;;10.03;51.96
47742;BME280;33504;52.066;6.096;2023-02-20T10:49:43;102135.69;;;10.00;52.11
47742;BME280;33504;52.066;6.096;2023-02-20T10:52:16;102145.29;;;9.69;52.66
47742;BME280;33504;52.066;6.096;2023-02-20T10:54:50;102144.24;;;9.89;52.84
47742;BME280;33504;52.066;6.096;2023-02-20T10:57:23;102122.28;;;10.02;52.37
47742;BME280;33504;52.066;6.096;2023-02-20T10:59:56;102100.28;;;9.71;52.63
47742;BME280;33504;52.066;6.096;2023-02-20T11:02:29;102089.99;;;9.60;53.10
47742;BME280;33504;52.066;6.096;2023-02-20T11:05:02;102109.45;;;9.68;52.85
47742;BME280;33504;52.066;6.096;2023-02-20T11:07:31;102117.03;;;9.90;52.63
47742;BME280;33504;52.066;6.096;2023-02-20T11:09:59;102103.84;;;9.75;52.84
47742;BME280;33504;52.066;6.096;2023-02-20T11:12:29;102073.80;;;9.95;52.54
47742;BME280;33504;52.066;6.096;2023-02-20T11:14:59;102079.14;;;9.91;52.62
47742;BME280;33504;52.066;6.096;2023-02-20T11:17:32;102087.51;;;10.00;52.25
47742;BME280;33504;52.066;6.096;2023-02-20T11:20:02;102097.78;;;9.99;52.43
47742;BME280;33504;52.066;6.096;2023-02-20T11:22:46;102087.00;;;9.93;52.96
47742;BME280;33504;52.066;6.096;2023-02-20T11:25:17;102088.00;;;9.66;52.91
47742;BME280;33504;52.066;6.096;2023-02-20T11:27:46;102078.17;;;9.50;52.75
47742;BME280;33504;52.066;6.096;2023-02-20T11:30:27;102065.72;;;9.54;53.02
47742;BME280;33504;52.066;6.096;2023-02-20T11:33:01;102075.91;;;9.37;53.37
47742;BME280;33504;52.066;6.096;2023-02-20T11:35:33;102096.19;;;9.73;53.35
47742;BME280;33504;52.066;6.096;2023-02-20T11:38:35;102076.33;;;10.74;52.68
47742;BME280;33504;52.066;6.096;2023-02-20T11:41:12;102080.56;;;9.78;52.60
47742;BME280;33504;52.066;6.096;2023-02-20T11:43:44;102073.27;;;10.01;52.65
47742;BME280;33504;52.066;6.096;2023-02-20T11:46:14;102071.95;;;10.06;52.16
47742;BME280;33504;52.066;6.096;2023-02-20T11:48:58;102081.34;;;10.32;52.60
47742;BME280;33504;52.066;6.096;2023-02-20T11:51:32;102080.40;;;10.18;52.14
47742;BME280;33504;52.066;6.096;2023-02-20T11:54:18;102090.44;;;9.97;52.04
47742;BME280;33504;52.066;6.096;2023-02-20T11:56:54;102079.38;;;10.27;51.51
47742;BME280;33504;52.066;6.096;2023-02-20T11:59:30;102078.71;;;10.26;51.51
47742;BME280;33504;52.066;6.096;2023-02-20T12:02:30;102108.11;;;11.35;51.32
47742;BME280;33504;52.066;6.096;2023-02-20T12:05:08;102110.16;;;10.00;51.53
47742;BME280;33504;52.066;6.096;2023-02-20T12:07:38;102102.61;;;10.08;51.87
47742;BME280;33504;52.066;6.096;2023-02-20T12:10:24;102098.44;;;10.61;51.17
47742;BME280;33504;52.066;6.096;2023-02-20T12:12:52;102105.35;;;10.70;50.72
47742;BME280;33504;52.066;6.096;2023-02-20T12:15:23;102094.19;;;9.83;51.55
47742;BME280;33504;52.066;6.096;2023-02-20T12:18:12;102089.84;;;10.00;51.89
47742;BME280;33504;52.066;6.096;2023-02-20T12:20:47;102100.25;;;10.08;51.89
47742;BME280;33504;52.066;6.096;2023-02-20T12:23:21;102096.54;;;9.59;52.67
47742;BME280;33504;52.066;6.096;2023-02-20T12:25:59;102098.83;;;10.16;51.55
47742;BME280;33504;52.066;6.096;2023-02-20T12:28:36;102085.63;;;10.43;51.28
47742;BME280;33504;52.066;6.096;2023-02-20T12:31:20;102079.90;;;9.92;51.95
47742;BME280;33504;52.066;6.096;2023-02-20T12:34:00;102069.17;;;10.38;51.54
47742;BME280;33504;52.066;6.096;2023-02-20T12:36:35;102083.96;;;10.18;51.89
47742;BME280;33504;52.066;6.096;2023-02-20T12:39:07;102070.50;;;10.08;52.04
47742;BME280;33504;52.066;6.096;2023-02-20T12:41:49;102068.34;;;10.00;52.43
47742;BME280;33504;52.066;6.096;2023-02-20T12:44:28;102070.06;;;9.97;52.44
47742;BME280;33504;52.066;6.096;2023-02-20T12:47:10;102071.26;;;10.01;52.02
47742;BME280;33504;52.066;6.096;2023-02-20T12:49:52;102074.76;;;10.50;52.04
47742;BME280;33504;52.066;6.096;2023-02-20T12:52:33;102079.31;;;10.40;51.89
47742;BME280;33504;52.066;6.096;2023-02-20T12:55:12;102068.59;;;10.45;51.75
47742;BME280;33504;52.066;6.096;2023-02-20T12:57:49;102069.65;;;10.67;51.35
47742;BME280;33504;52.066;6.096;2023-02-20T13:00:24;102063.04;;;10.71;51.13
47742;BME280;33504;52.066;6.096;2023-02-20T13:03:02;102061.13;;;10.19;51.91
47742;BME280;33504;52.066;6.096;2023-02-20T13:05:36;102052.60;;;10.38;51.74
47742;BME280;33504;52.066;6.096;2023-02-20T13:08:08;102053.60;;;10.46;51.88
47742;BME280;33504;52.066;6.096;2023-02-20T13:10:46;102052.66;;;10.19;51.99
47742;BME280;33504;52.066;6.096;2023-02-20T13:13:16;102060.69;;;10.02;52.51
47742;BME280;33504;52.066;6.096;2023-02-20T13:15:49;102057.44;;;9.85;52.86